sensor_id;sensor_type;location;lat;lon;timestamp;pressure;altitude;pressure_sealevel;temperature;humidity
52719;BME280;38616;42.140;24.760;2023-07-02T00:01:12;98752.22;;;23.93;63.37
52719;BME280;38616;42.140;24.760;2023-07-02T00:03:38;98745.06;;;23.88;63.55
52719;BME280;38616;42.140;24.760;2023-07-02T00:06:04;98751.03;;;23.86;64.00
52719;BME280;38616;42.140;24.760;2023-07-02T00:08:29;98745.09;;;23.91;63.82
52719;BME280;38616;42.140;24.760;2023-07-02T00:10:54;98753.88;;;24.08;63.90
52719;BME280;38616;42.140;24.760;2023-07-02T00:13:22;98748.25;;;23.90;64.53
52719;BME280;38616;42.140;24.760;2023-07-02T00:15:51;98753.00;;;23.93;64.65
52719;BME280;38616;42.140;24.760;2023-07-02T00:18:16;98756.16;;;23.81;65.63
52719;BME280;38616;42.140;24.760;2023-07-02T00:20:44;98752.19;;;23.78;65.38
52719;BME280;38616;42.140;24.760;2023-07-02T00:23:10;98745.16;;;24.06;64.25
52719;BME280;38616;42.140;24.760;2023-07-02T00:25:36;98751.09;;;24.12;63.17
52719;BME280;38616;42.140;24.760;2023-07-02T00:28:02;98751.84;;;23.98;63.75
52719;BME280;38616;42.140;24.760;2023-07-02T00:30:28;98753.47;;;24.10;63.60
52719;BME280;38616;42.140;24.760;2023-07-02T00:32:54;98750.72;;;24.10;63.19
52719;BME280;38616;42.140;24.760;2023-07-02T00:35:19;98758.28;;;24.16;63.11
52719;BME280;38616;42.140;24.760;2023-07-02T00:37:44;98754.69;;;24.05;63.38
52719;BME280;38616;42.140;24.760;2023-07-02T00:40:10;98757.81;;;24.00;63.87
52719;BME280;38616;42.140;24.760;2023-07-02T00:42:36;98757.47;;;24.23;62.92
52719;BME280;38616;42.140;24.760;2023-07-02T00:45:01;98749.84;;;23.87;63.70
52719;BME280;38616;42.140;24.760;2023-07-02T00:47:32;98743.91;;;23.96;63.80
52719;BME280;38616;42.140;24.760;2023-07-02T00:49:58;98752.28;;;24.03;63.39
52719;BME280;38616;42.140;24.760;2023-07-02T00:52:24;98751.09;;;24.04;63.29
52719;BME280;38616;42.140;24.760;2023-07-02T00:54:51;98745.88;;;23.92;64.04
52719;BME280;38616;42.140;24.760;2023-07-02T00:57:17;98736.78;;;23.91;63.76
52719;BME280;38616;42.140;24.760;2023-07-02T00:59:42;98735.97;;;23.91;63.18
52719;BME280;38616;42.140;24.760;2023-07-02T01:02:07;98740.25;;;23.63;63.11
52719;BME280;38616;42.140;24.760;2023-07-02T01:04:33;98732.72;;;23.64;63.08
52719;BME280;38616;42.140;24.760;2023-07-02T01:06:58;98736.69;;;23.66;63.31
52719;BME280;38616;42.140;24.760;2023-07-02T01:09:24;98741.47;;;23.73;62.74
52719;BME280;38616;42.140;24.760;2023-07-02T01:11:59;98742.69;;;23.75;62.26
52719;BME280;38616;42.140;24.760;2023-07-02T01:14:34;98736.81;;;24.02;61.44
52719;BME280;38616;42.140;24.760;2023-07-02T01:17:01;98736.78;;;23.91;60.83
52719;BME280;38616;42.140;24.760;2023-07-02T01:19:50;98733.19;;;23.87;60.21
52719;BME280;38616;42.140;24.760;2023-07-02T01:22:23;98735.56;;;23.82;60.50
52719;BME280;38616;42.140;24.760;2023-07-02T01:24:50;98735.59;;;23.96;59.65
52719;BME280;38616;42.140;24.760;2023-07-02T01:27:16;98735.66;;;24.11;58.79
52719;BME280;38616;42.140;24.760;2023-07-02T01:29:42;98727.25;;;23.96;59.00
52719;BME280;38616;42.140;24.760;2023-07-02T01:32:10;98727.66;;;23.87;59.57
52719;BME280;38616;42.140;24.760;2023-07-02T01:34:35;98725.66;;;23.81;59.52
52719;BME280;38616;42.140;24.760;2023-07-02T01:37:02;98736.03;;;24.02;59.15
52719;BME280;38616;42.140;24.760;2023-07-02T01:39:27;98733.19;;;23.91;59.29
52719;BME280;38616;42.140;24.760;2023-07-02T01:41:55;98727.25;;;23.89;59.28
52719;BME280;38616;42.140;24.760;2023-07-02T01:44:21;98722.88;;;23.77;59.52
52719;BME280;38616;42.140;24.760;2023-07-02T01:46:47;98720.53;;;23.83;60.16
52719;BME280;38616;42.140;24.760;2023-07-02T01:49:18;98722.75;;;23.44;61.02
52719;BME280;38616;42.140;24.760;2023-07-02T01:51:50;98728.03;;;23.86;60.20
52719;BME280;38616;42.140;24.760;2023-07-02T01:54:18;98730.00;;;23.89;59.97
52719;BME280;38616;42.140;24.760;2023-07-02T01:56:43;98710.97;;;23.73;59.96
52719;BME280;38616;42.140;24.760;2023-07-02T01:59:09;98707.84;;;23.82;60.01
52719;BME280;38616;42.140;24.760;2023-07-02T02:01:35;98708.56;;;23.64;60.79
52719;BME280;38616;42.140;24.760;2023-07-02T02:04:00;98700.16;;;23.46;61.09
52719;BME280;38616;42.140;24.760;2023-07-02T02:06:28;98697.44;;;23.60;60.69
52719;BME280;38616;42.140;24.760;2023-07-02T02:08:54;98714.13;;;23.64;60.65
52719;BME280;38616;42.140;24.760;2023-07-02T02:11:19;98713.28;;;23.56;60.96
52719;BME280;38616;42.140;24.760;2023-07-02T02:13:45;98706.94;;;23.56;61.04
52719;BME280;38616;42.140;24.760;2023-07-02T02:16:10;98708.91;;;23.55;60.47
52719;BME280;38616;42.140;24.760;2023-07-02T02:18:36;98713.66;;;23.48;60.68
52719;BME280;38616;42.140;24.760;2023-07-02T02:21:01;98706.06;;;23.37;60.67
52719;BME280;38616;42.140;24.760;2023-07-02T02:23:27;98702.19;;;23.53;60.47
52719;BME280;38616;42.140;24.760;2023-07-02T02:25:52;98698.19;;;23.46;60.65
52719;BME280;38616;42.140;24.760;2023-07-02T02:28:18;98697.81;;;23.48;60.87
52719;BME280;38616;42.140;24.760;2023-07-02T02:30:43;98698.56;;;23.45;60.47
52719;BME280;38616;42.140;24.760;2023-07-02T02:33:09;98706.88;;;23.41;60.38
52719;BME280;38616;42.140;24.760;2023-07-02T02:35:34;98709.22;;;23.32;60.27
52719;BME280;38616;42.140;24.760;2023-07-02T02:38:04;98716.44;;;23.55;60.17
52719;BME280;38616;42.140;24.760;2023-07-02T02:40:32;98727.81;;;23.28;60.46
52719;BME280;38616;42.140;24.760;2023-07-02T02:42:57;98719.41;;;23.21;60.97
52719;BME280;38616;42.140;24.760;2023-07-02T02:45:23;98731.00;;;23.37;60.53
52719;BME280;38616;42.140;24.760;2023-07-02T02:47:48;98726.28;;;23.45;60.56
52719;BME280;38616;42.140;24.760;2023-07-02T02:50:14;98726.28;;;23.41;60.30
52719;BME280;38616;42.140;24.760;2023-07-02T02:52:39;98726.28;;;23.38;60.28
52719;BME280;38616;42.140;24.760;2023-07-02T02:55:06;98732.19;;;23.33;60.11
52719;BME280;38616;42.140;24.760;2023-07-02T02:57:32;98732.94;;;23.26;60.57
52719;BME280;38616;42.140;24.760;2023-07-02T02:59:58;98747.63;;;22.78;62.35
52719;BME280;38616;42.140;24.760;2023-07-02T03:02:24;98749.72;;;22.95;62.18
52719;BME280;38616;42.140;24.760;2023-07-02T03:04:49;98766.75;;;22.94;61.87
52719;BME280;38616;42.140;24.760;2023-07-02T03:07:15;98763.53;;;22.88;61.93
52719;BME280;38616;42.140;24.760;2023-07-02T03:09:41;98772.28;;;22.94;62.06
52719;BME280;38616;42.140;24.760;2023-07-02T03:12:06;98758.38;;;22.86;61.79
52719;BME280;38616;42.140;24.760;2023-07-02T03:14:32;98767.91;;;22.44;63.45
52719;BME280;38616;42.140;24.760;2023-07-02T03:16:58;98772.63;;;22.43;63.20
52719;BME280;38616;42.140;24.760;2023-07-02T03:19:24;98776.72;;;22.19;63.80
52719;BME280;38616;42.140;24.760;2023-07-02T03:21:49;98776.22;;;22.10;64.54
52719;BME280;38616;42.140;24.760;2023-07-02T03:24:14;98781.00;;;22.13;64.13
52719;BME280;38616;42.140;24.760;2023-07-02T03:26:43;98788.13;;;21.80;65.07
52719;BME280;38616;42.140;24.760;2023-07-02T03:29:09;98791.59;;;21.73;66.05
52719;BME280;38616;42.140;24.760;2023-07-02T03:31:35;98790.81;;;21.46;66.89
52719;BME280;38616;42.140;24.760;2023-07-02T03:34:05;98797.41;;;21.37;67.46
52719;BME280;38616;42.140;24.760;2023-07-02T03:36:31;98801.91;;;21.19;68.04
52719;BME280;38616;42.140;24.760;2023-07-02T03:38:56;98795.09;;;21.13;68.57
52719;BME280;38616;42.140;24.760;2023-07-02T03:41:22;98801.22;;;21.29;68.27
52719;BME280;38616;42.140;24.760;2023-07-02T03:43:47;98791.03;;;21.33;68.13
52719;BME280;38616;42.140;24.760;2023-07-02T03:46:13;98795.50;;;21.41;67.98
52719;BME280;38616;42.140;24.760;2023-07-02T03:48:39;98795.22;;;21.50;67.15
52719;BME280;38616;42.140;24.760;2023-07-02T03:51:04;98787.06;;;21.31;67.67
52719;BME280;38616;42.140;24.760;2023-07-02T03:53:30;98796.56;;;21.06;68.92
52719;BME280;38616;42.140;24.760;2023-07-02T03:55:55;98806.25;;;20.96;68.97
52719;BME280;38616;42.140;24.760;2023-07-02T03:58:20;98788.06;;;20.92;69.48
52719;BME280;38616;42.140;24.760;2023-07-02T04:00:46;98803.78;;;20.88;69.48
52719;BME280;38616;42.140;24.760;2023-07-02T04:03:15;98794.31;;;20.89;69.47
52719;BME280;38616;42.140;24.760;2023-07-02T04:05:41;98792.53;;;21.00;69.37
52719;BME280;38616;42.140;24.760;2023-07-02T04:08:06;98786.06;;;21.16;68.89
52719;BME280;38616;42.140;24.760;2023-07-02T04:10:32;98792.72;;;21.41;68.19
52719;BME280;38616;42.140;24.760;2023-07-02T04:12:57;98799.28;;;21.87;66.51
52719;BME280;38616;42.140;24.760;2023-07-02T04:15:22;98793.31;;;22.19;65.42
52719;BME280;38616;42.140;24.760;2023-07-02T04:17:49;98795.63;;;22.13;65.09
52719;BME280;38616;42.140;24.760;2023-07-02T04:20:15;98803.25;;;21.90;65.83
52719;BME280;38616;42.140;24.760;2023-07-02T04:22:40;98797.13;;;21.73;66.17
52719;BME280;38616;42.140;24.760;2023-07-02T04:25:06;98803.72;;;21.95;65.88
52719;BME280;38616;42.140;24.760;2023-07-02T04:27:31;98805.59;;;21.88;66.21
52719;BME280;38616;42.140;24.760;2023-07-02T04:29:57;98807.97;;;21.59;67.05
52719;BME280;38616;42.140;24.760;2023-07-02T04:32:22;98809.81;;;21.78;66.27
52719;BME280;38616;42.140;24.760;2023-07-02T04:34:47;98803.13;;;22.13;65.00
52719;BME280;38616;42.140;24.760;2023-07-02T04:37:13;98807.38;;;22.41;64.02
52719;BME280;38616;42.140;24.760;2023-07-02T04:39:40;98808.50;;;22.74;62.95
52719;BME280;38616;42.140;24.760;2023-07-02T04:42:06;98801.88;;;22.86;61.92
52719;BME280;38616;42.140;24.760;2023-07-02T04:44:31;98798.97;;;22.71;62.42
52719;BME280;38616;42.140;24.760;2023-07-02T04:46:58;98800.44;;;22.58;62.66
52719;BME280;38616;42.140;24.760;2023-07-02T04:49:23;98804.03;;;22.62;62.37
52719;BME280;38616;42.140;24.760;2023-07-02T04:51:50;98819.53;;;22.70;61.95
52719;BME280;38616;42.140;24.760;2023-07-02T04:54:15;98826.78;;;22.86;61.71
52719;BME280;38616;42.140;24.760;2023-07-02T04:56:40;98830.56;;;23.12;61.38
52719;BME280;38616;42.140;24.760;2023-07-02T04:59:06;98821.91;;;23.17;60.96
52719;BME280;38616;42.140;24.760;2023-07-02T05:01:31;98826.34;;;23.29;60.49
52719;BME280;38616;42.140;24.760;2023-07-02T05:03:56;98821.03;;;23.69;59.27
52719;BME280;38616;42.140;24.760;2023-07-02T05:06:22;98819.88;;;23.66;58.93
52719;BME280;38616;42.140;24.760;2023-07-02T05:08:47;98822.63;;;23.66;58.73
52719;BME280;38616;42.140;24.760;2023-07-02T05:11:13;98833.91;;;22.83;60.70
52719;BME280;38616;42.140;24.760;2023-07-02T05:13:38;98840.97;;;22.77;63.02
52719;BME280;38616;42.140;24.760;2023-07-02T05:16:03;98838.00;;;22.55;64.96
52719;BME280;38616;42.140;24.760;2023-07-02T05:18:29;98848.72;;;22.61;66.72
52719;BME280;38616;42.140;24.760;2023-07-02T05:20:54;98839.38;;;22.76;64.94
52719;BME280;38616;42.140;24.760;2023-07-02T05:23:25;98852.47;;;22.83;65.89
52719;BME280;38616;42.140;24.760;2023-07-02T05:25:51;98858.16;;;22.97;66.16
52719;BME280;38616;42.140;24.760;2023-07-02T05:28:16;98857.72;;;22.92;66.50
52719;BME280;38616;42.140;24.760;2023-07-02T05:30:42;98872.28;;;22.47;67.42
52719;BME280;38616;42.140;24.760;2023-07-02T05:33:07;98874.03;;;22.63;68.06
52719;BME280;38616;42.140;24.760;2023-07-02T05:35:32;98881.25;;;22.71;68.40
52719;BME280;38616;42.140;24.760;2023-07-02T05:37:58;98877.09;;;22.54;67.68
52719;BME280;38616;42.140;24.760;2023-07-02T05:40:43;98874.72;;;22.52;68.75
52719;BME280;38616;42.140;24.760;2023-07-02T05:43:12;98876.50;;;22.71;68.48
52719;BME280;38616;42.140;24.760;2023-07-02T05:45:37;98886.94;;;22.17;67.82
52719;BME280;38616;42.140;24.760;2023-07-02T05:48:03;98885.34;;;22.16;67.32
52719;BME280;38616;42.140;24.760;2023-07-02T05:50:28;98880.84;;;22.04;67.27
52719;BME280;38616;42.140;24.760;2023-07-02T05:52:54;98875.34;;;21.77;67.22
52719;BME280;38616;42.140;24.760;2023-07-02T05:55:19;98878.34;;;21.65;66.58
52719;BME280;38616;42.140;24.760;2023-07-02T05:57:45;98873.53;;;21.89;67.13
52719;BME280;38616;42.140;24.760;2023-07-02T06:00:11;98859.16;;;22.06;65.84
52719;BME280;38616;42.140;24.760;2023-07-02T06:02:39;98871.63;;;21.93;65.70
52719;BME280;38616;42.140;24.760;2023-07-02T06:05:04;98868.53;;;21.98;65.97
52719;BME280;38616;42.140;24.760;2023-07-02T06:07:30;98886.94;;;22.17;65.96
52719;BME280;38616;42.140;24.760;2023-07-02T06:09:55;98886.25;;;21.93;66.90
52719;BME280;38616;42.140;24.760;2023-07-02T06:12:22;98882.16;;;22.14;66.75
52719;BME280;38616;42.140;24.760;2023-07-02T06:14:47;98872.31;;;21.86;67.53
52719;BME280;38616;42.140;24.760;2023-07-02T06:17:13;98867.69;;;21.94;67.25
52719;BME280;38616;42.140;24.760;2023-07-02T06:19:38;98865.25;;;21.89;67.80
52719;BME280;38616;42.140;24.760;2023-07-02T06:22:04;98869.06;;;21.80;67.39
52719;BME280;38616;42.140;24.760;2023-07-02T06:24:30;98864.38;;;22.15;67.15
52719;BME280;38616;42.140;24.760;2023-07-02T06:26:56;98866.69;;;22.43;65.80
52719;BME280;38616;42.140;24.760;2023-07-02T06:29:23;98864.63;;;22.71;64.50
52719;BME280;38616;42.140;24.760;2023-07-02T06:31:49;98854.63;;;22.59;64.14
52719;BME280;38616;42.140;24.760;2023-07-02T06:34:14;98844.38;;;22.63;64.69
52719;BME280;38616;42.140;24.760;2023-07-02T06:36:43;98851.16;;;22.69;64.41
52719;BME280;38616;42.140;24.760;2023-07-02T06:39:08;98854.75;;;22.73;64.49
52719;BME280;38616;42.140;24.760;2023-07-02T06:41:35;98847.81;;;22.91;63.83
52719;BME280;38616;42.140;24.760;2023-07-02T06:44:00;98851.06;;;23.03;63.52
52719;BME280;38616;42.140;24.760;2023-07-02T06:46:26;98857.81;;;23.06;63.72
52719;BME280;38616;42.140;24.760;2023-07-02T06:48:51;98848.38;;;23.14;62.12
52719;BME280;38616;42.140;24.760;2023-07-02T06:51:17;98846.19;;;22.86;62.83
52719;BME280;38616;42.140;24.760;2023-07-02T06:53:44;98850.22;;;22.96;62.66
52719;BME280;38616;42.140;24.760;2023-07-02T06:56:10;98854.34;;;23.16;62.90
52719;BME280;38616;42.140;24.760;2023-07-02T06:58:35;98847.53;;;23.63;60.87
52719;BME280;38616;42.140;24.760;2023-07-02T07:01:03;98838.47;;;23.66;60.22
52719;BME280;38616;42.140;24.760;2023-07-02T07:03:29;98844.13;;;23.84;60.13
52719;BME280;38616;42.140;24.760;2023-07-02T07:05:55;98844.22;;;24.05;60.22
52719;BME280;38616;42.140;24.760;2023-07-02T07:08:22;98851.94;;;23.67;60.51
52719;BME280;38616;42.140;24.760;2023-07-02T07:10:49;98838.56;;;23.87;59.53
52719;BME280;38616;42.140;24.760;2023-07-02T07:13:15;98836.81;;;23.54;61.01
52719;BME280;38616;42.140;24.760;2023-07-02T07:15:41;98844.41;;;23.68;60.64
52719;BME280;38616;42.140;24.760;2023-07-02T07:18:08;98840.03;;;23.63;61.35
52719;BME280;38616;42.140;24.760;2023-07-02T07:20:34;98847.97;;;23.65;62.02
52719;BME280;38616;42.140;24.760;2023-07-02T07:22:59;98837.22;;;23.59;61.14
52719;BME280;38616;42.140;24.760;2023-07-02T07:25:24;98844.91;;;23.84;60.40
52719;BME280;38616;42.140;24.760;2023-07-02T07:27:53;98855.41;;;23.50;60.83
52719;BME280;38616;42.140;24.760;2023-07-02T07:30:20;98842.22;;;23.32;61.56
52719;BME280;38616;42.140;24.760;2023-07-02T07:32:51;98842.72;;;23.52;61.21
52719;BME280;38616;42.140;24.760;2023-07-02T07:35:18;98841.31;;;23.76;59.82
52719;BME280;38616;42.140;24.760;2023-07-02T07:37:44;98838.53;;;23.76;60.26
52719;BME280;38616;42.140;24.760;2023-07-02T07:40:10;98840.16;;;23.85;60.44
52719;BME280;38616;42.140;24.760;2023-07-02T07:42:35;98839.84;;;24.04;59.71
52719;BME280;38616;42.140;24.760;2023-07-02T07:45:02;98827.63;;;24.20;59.74
52719;BME280;38616;42.140;24.760;2023-07-02T07:47:28;98829.31;;;24.61;58.68
52719;BME280;38616;42.140;24.760;2023-07-02T07:49:53;98828.19;;;24.73;58.30
52719;BME280;38616;42.140;24.760;2023-07-02T07:52:20;98811.91;;;24.97;57.49
52719;BME280;38616;42.140;24.760;2023-07-02T07:54:45;98815.88;;;25.06;55.50
52719;BME280;38616;42.140;24.760;2023-07-02T07:57:10;98811.91;;;24.97;53.99
52719;BME280;38616;42.140;24.760;2023-07-02T07:59:36;98819.44;;;24.92;53.48
52719;BME280;38616;42.140;24.760;2023-07-02T08:02:01;98819.84;;;24.84;53.87
52719;BME280;38616;42.140;24.760;2023-07-02T08:04:27;98818.66;;;24.99;53.65
52719;BME280;38616;42.140;24.760;2023-07-02T08:06:52;98807.94;;;24.94;54.06
52719;BME280;38616;42.140;24.760;2023-07-02T08:09:20;98807.13;;;24.86;54.62
52719;BME280;38616;42.140;24.760;2023-07-02T08:11:46;98809.50;;;25.20;54.25
52719;BME280;38616;42.140;24.760;2023-07-02T08:14:12;98800.34;;;25.38;53.40
52719;BME280;38616;42.140;24.760;2023-07-02T08:16:38;98809.91;;;24.72;55.32
52719;BME280;38616;42.140;24.760;2023-07-02T08:19:03;98817.41;;;24.53;55.27
52719;BME280;38616;42.140;24.760;2023-07-02T08:21:28;98811.91;;;24.97;53.90
52719;BME280;38616;42.140;24.760;2023-07-02T08:23:54;98813.47;;;25.19;54.14
52719;BME280;38616;42.140;24.760;2023-07-02T08:26:21;98812.28;;;25.17;53.78
52719;BME280;38616;42.140;24.760;2023-07-02T08:28:49;98818.63;;;25.03;54.37
52719;BME280;38616;42.140;24.760;2023-07-02T08:31:15;98803.94;;;25.28;53.90
52719;BME280;38616;42.140;24.760;2023-07-02T08:33:41;98811.03;;;25.40;53.03
52719;BME280;38616;42.140;24.760;2023-07-02T08:36:06;98796.34;;;25.61;52.69
52719;BME280;38616;42.140;24.760;2023-07-02T08:38:32;98807.91;;;25.34;53.24
52719;BME280;38616;42.140;24.760;2023-07-02T08:40:57;98802.34;;;25.48;53.28
52719;BME280;38616;42.140;24.760;2023-07-02T08:43:25;98802.34;;;25.48;52.57
52719;BME280;38616;42.140;24.760;2023-07-02T08:45:52;98798.34;;;25.46;52.61
52719;BME280;38616;42.140;24.760;2023-07-02T08:48:21;98796.72;;;25.63;53.16
52719;BME280;38616;42.140;24.760;2023-07-02T08:50:49;98802.22;;;25.77;53.03
52719;BME280;38616;42.140;24.760;2023-07-02T08:53:15;98802.47;;;26.19;52.32
52719;BME280;38616;42.140;24.760;2023-07-02T08:55:40;98804.38;;;26.30;52.03
52719;BME280;38616;42.140;24.760;2023-07-02T08:58:06;98800.44;;;26.27;51.82
52719;BME280;38616;42.140;24.760;2023-07-02T09:00:31;98803.00;;;25.85;52.28
52719;BME280;38616;42.140;24.760;2023-07-02T09:03:14;98803.72;;;26.00;52.59
52719;BME280;38616;42.140;24.760;2023-07-02T09:05:50;98815.56;;;26.22;52.09
52719;BME280;38616;42.140;24.760;2023-07-02T09:08:23;98810.72;;;26.37;52.04
52719;BME280;38616;42.140;24.760;2023-07-02T09:10:49;98808.47;;;26.03;52.50
52719;BME280;38616;42.140;24.760;2023-07-02T09:13:14;98804.44;;;26.26;51.86
52719;BME280;38616;42.140;24.760;2023-07-02T09:15:40;98806.69;;;26.46;51.21
52719;BME280;38616;42.140;24.760;2023-07-02T09:18:20;98802.75;;;26.39;51.53
52719;BME280;38616;42.140;24.760;2023-07-02T09:20:46;98796.63;;;26.59;51.65
52719;BME280;38616;42.140;24.760;2023-07-02T09:23:11;98789.91;;;26.53;51.07
52719;BME280;38616;42.140;24.760;2023-07-02T09:25:38;98785.88;;;26.61;50.98
52719;BME280;38616;42.140;24.760;2023-07-02T09:28:17;98787.16;;;27.02;49.93
52719;BME280;38616;42.140;24.760;2023-07-02T09:30:56;98792.16;;;27.22;48.68
52719;BME280;38616;42.140;24.760;2023-07-02T09:33:27;98781.44;;;27.20;48.76
52719;BME280;38616;42.140;24.760;2023-07-02T09:35:53;98775.41;;;27.25;49.29
52719;BME280;38616;42.140;24.760;2023-07-02T09:38:20;98773.63;;;27.42;48.95
52719;BME280;38616;42.140;24.760;2023-07-02T09:40:47;98785.81;;;27.18;47.82
52719;BME280;38616;42.140;24.760;2023-07-02T09:43:14;98790.34;;;26.51;48.71
52719;BME280;38616;42.140;24.760;2023-07-02T09:45:46;98783.03;;;26.72;48.47
52719;BME280;38616;42.140;24.760;2023-07-02T09:48:16;98791.81;;;27.16;47.25
52719;BME280;38616;42.140;24.760;2023-07-02T09:50:47;98795.63;;;26.91;47.53
52719;BME280;38616;42.140;24.760;2023-07-02T09:53:12;98787.34;;;26.77;48.40
52719;BME280;38616;42.140;24.760;2023-07-02T09:55:39;98791.38;;;26.72;47.74
52719;BME280;38616;42.140;24.760;2023-07-02T09:58:05;98797.47;;;27.09;47.65
52719;BME280;38616;42.140;24.760;2023-07-02T10:00:30;98787.47;;;26.62;47.18
52719;BME280;38616;42.140;24.760;2023-07-02T10:02:56;98791.91;;;26.52;48.08
52719;BME280;38616;42.140;24.760;2023-07-02T10:05:28;98788.13;;;26.84;47.69
52719;BME280;38616;42.140;24.760;2023-07-02T10:07:56;98790.91;;;26.84;47.61
52719;BME280;38616;42.140;24.760;2023-07-02T10:10:28;98793.41;;;27.17;48.24
52719;BME280;38616;42.140;24.760;2023-07-02T10:12:54;98787.00;;;27.20;47.53
52719;BME280;38616;42.140;24.760;2023-07-02T10:15:28;98787.59;;;27.01;47.64
52719;BME280;38616;42.140;24.760;2023-07-02T10:18:02;98791.69;;;26.89;48.63
52719;BME280;38616;42.140;24.760;2023-07-02T10:20:32;98802.09;;;26.77;49.10
52719;BME280;38616;42.140;24.760;2023-07-02T10:22:59;98798.72;;;26.48;50.49
52719;BME280;38616;42.140;24.760;2023-07-02T10:25:31;98797.34;;;26.74;50.19
52719;BME280;38616;42.140;24.760;2023-07-02T10:27:58;98791.31;;;26.83;50.73
52719;BME280;38616;42.140;24.760;2023-07-02T10:30:35;98801.91;;;26.50;51.49
52719;BME280;38616;42.140;24.760;2023-07-02T10:33:14;98801.69;;;26.19;52.47
52719;BME280;38616;42.140;24.760;2023-07-02T10:35:41;98801.84;;;25.75;53.29
52719;BME280;38616;42.140;24.760;2023-07-02T10:38:12;98802.31;;;25.56;54.11
52719;BME280;38616;42.140;24.760;2023-07-02T10:40:39;98793.53;;;25.72;54.25
52719;BME280;38616;42.140;24.760;2023-07-02T10:43:04;98782.22;;;26.08;53.72
52719;BME280;38616;42.140;24.760;2023-07-02T10:45:32;98795.00;;;26.02;53.58
52719;BME280;38616;42.140;24.760;2023-07-02T10:47:58;98785.47;;;25.92;54.24
52719;BME280;38616;42.140;24.760;2023-07-02T10:50:24;98777.22;;;25.74;54.48
52719;BME280;38616;42.140;24.760;2023-07-02T10:52:50;98793.31;;;26.19;54.13
52719;BME280;38616;42.140;24.760;2023-07-02T10:55:25;98799.66;;;26.23;55.00
52719;BME280;38616;42.140;24.760;2023-07-02T10:58:02;98808.41;;;26.21;55.80
52719;BME280;38616;42.140;24.760;2023-07-02T11:00:29;98821.94;;;26.23;56.97
52719;BME280;38616;42.140;24.760;2023-07-02T11:13:19;98774.91;;;25.58;64.27
52719;BME280;38616;42.140;24.760;2023-07-02T11:15:49;98776.91;;;25.54;64.81
52719;BME280;38616;42.140;24.760;2023-07-02T11:18:16;98792.75;;;25.60;63.87
52719;BME280;38616;42.140;24.760;2023-07-02T11:20:42;98800.69;;;25.62;65.75
52719;BME280;38616;42.140;24.760;2023-07-02T11:23:18;98803.44;;;25.69;65.22
52719;BME280;38616;42.140;24.760;2023-07-02T11:25:57;98798.63;;;25.84;64.89
52719;BME280;38616;42.140;24.760;2023-07-02T11:28:23;98790.19;;;26.02;64.64
52719;BME280;38616;42.140;24.760;2023-07-02T11:30:49;98799.06;;;25.79;63.09
52719;BME280;38616;42.140;24.760;2023-07-02T11:33:14;98787.91;;;25.86;63.50
52719;BME280;38616;42.140;24.760;2023-07-02T11:35:40;98782.31;;;25.90;64.22
52719;BME280;38616;42.140;24.760;2023-07-02T11:38:08;98776.75;;;25.93;64.87
52719;BME280;38616;42.140;24.760;2023-07-02T11:40:35;98777.47;;;26.05;64.44
52719;BME280;38616;42.140;24.760;2023-07-02T11:43:01;98778.19;;;26.23;63.69
52719;BME280;38616;42.140;24.760;2023-07-02T11:45:26;98775.03;;;26.18;62.71
52719;BME280;38616;42.140;24.760;2023-07-02T11:47:51;98773.81;;;26.26;62.17
52719;BME280;38616;42.140;24.760;2023-07-02T11:50:17;98784.59;;;26.09;62.04
52719;BME280;38616;42.140;24.760;2023-07-02T11:52:42;98796.16;;;26.04;61.14
52719;BME280;38616;42.140;24.760;2023-07-02T11:55:08;98792.22;;;26.02;60.22
52719;BME280;38616;42.140;24.760;2023-07-02T11:57:33;98788.66;;;25.94;60.42
52719;BME280;38616;42.140;24.760;2023-07-02T11:59:58;98784.00;;;25.62;59.78
52719;BME280;38616;42.140;24.760;2023-07-02T12:02:25;98794.28;;;25.72;62.85
52719;BME280;38616;42.140;24.760;2023-07-02T12:04:50;98780.84;;;25.56;66.09
52719;BME280;38616;42.140;24.760;2023-07-02T12:07:16;98774.03;;;25.75;67.12
52719;BME280;38616;42.140;24.760;2023-07-02T12:09:41;98764.84;;;25.89;66.52
52719;BME280;38616;42.140;24.760;2023-07-02T12:12:07;98767.94;;;26.02;66.89
52719;BME280;38616;42.140;24.760;2023-07-02T12:14:33;98765.50;;;26.19;65.66
52719;BME280;38616;42.140;24.760;2023-07-02T12:16:59;98761.91;;;26.11;65.33
52719;BME280;38616;42.140;24.760;2023-07-02T12:19:24;98759.94;;;26.11;65.76
52719;BME280;38616;42.140;24.760;2023-07-02T12:21:49;98752.25;;;26.37;64.58
52719;BME280;38616;42.140;24.760;2023-07-02T12:24:15;98741.94;;;26.31;64.03
52719;BME280;38616;42.140;24.760;2023-07-02T12:26:40;98743.59;;;26.74;62.60
52719;BME280;38616;42.140;24.760;2023-07-02T12:29:06;98744.75;;;26.83;61.28
52719;BME280;38616;42.140;24.760;2023-07-02T12:31:31;98750.91;;;27.06;60.44
52719;BME280;38616;42.140;24.760;2023-07-02T12:33:57;98741.97;;;27.22;57.66
52719;BME280;38616;42.140;24.760;2023-07-02T12:36:23;98733.38;;;27.05;58.73
52719;BME280;38616;42.140;24.760;2023-07-02T12:38:48;98737.75;;;27.06;58.52
52719;BME280;38616;42.140;24.760;2023-07-02T12:41:14;98744.34;;;26.85;59.54
52719;BME280;38616;42.140;24.760;2023-07-02T12:43:39;98736.44;;;26.76;57.41
52719;BME280;38616;42.140;24.760;2023-07-02T12:46:06;98726.06;;;26.80;57.93
52719;BME280;38616;42.140;24.760;2023-07-02T12:48:31;98731.22;;;26.82;57.55
52719;BME280;38616;42.140;24.760;2023-07-02T12:50:58;98724.66;;;27.03;57.92
52719;BME280;38616;42.140;24.760;2023-07-02T12:53:24;98732.22;;;27.03;59.37
52719;BME280;38616;42.140;24.760;2023-07-02T12:55:50;98723.13;;;26.95;60.22
52719;BME280;38616;42.140;24.760;2023-07-02T12:58:15;98724.31;;;26.97;60.67